Airport Information

KEUG - Mahlon Sweet Fld Airport

KEUG 240754Z AUTO 26005KT 10SM CLR 15/12 A3002 RMK AO2 SLP165 T01500122 402720111


  • General Information

  • Coordinates: N 44°7'28"/ W 123°12'43"
  • Location: N/A
  • Surveyed Elevation: 374 MSL

Operations

Flow Name Active Runways Conditions
North Flow Landing: 34L/34R
Departing: 34L/34R
Wind Direction: 251-069°
Wind Speed: >10
South Flow Landing: 16L/16R
Departing: 16L/16R
Wind Direction: 070-250°
Wind Speed: ≤10 or CALM

Green background denotes normal operations.


Common Frequencies

Callsign Frequency Position Name
EUG_GND 121.700 Eugene Ground
EUG_TWR 118.900 Eugene Tower
EUG_APP 119.600 Eugene Approach
KEUG_ATIS 125.225 Eugene ATIS

More at the Document Center


Charts

Under Construction